createdAt,value
2022-08-21T00:00:22.066Z,1011.25
2022-08-21T00:01:22.075Z,1011.27
2022-08-21T00:02:22.137Z,1011.27
2022-08-21T00:03:22.087Z,1011.27
2022-08-21T00:04:22.709Z,1011.30
2022-08-21T00:05:22.432Z,1011.30
2022-08-21T00:06:22.087Z,1011.28
2022-08-21T00:07:22.097Z,1011.28
2022-08-21T00:08:22.306Z,1011.27
2022-08-21T00:09:22.095Z,1011.25
2022-08-21T00:10:22.106Z,1011.27
2022-08-21T00:11:22.092Z,1011.24
2022-08-21T00:12:22.106Z,1011.21
2022-08-21T00:13:22.109Z,1011.24
2022-08-21T00:14:22.162Z,1011.22
2022-08-21T00:15:22.102Z,1011.23
2022-08-21T00:16:22.114Z,1011.21
2022-08-21T00:17:22.119Z,1011.20
2022-08-21T00:18:22.129Z,1011.22
2022-08-21T00:19:22.130Z,1011.16
2022-08-21T00:20:22.125Z,1011.16
2022-08-21T00:21:22.133Z,1011.13
2022-08-21T00:22:22.162Z,1011.09
2022-08-21T00:23:22.144Z,1011.11
2022-08-21T00:24:22.118Z,1011.09
2022-08-21T00:25:24.421Z,1011.09
2022-08-21T00:26:22.133Z,1011.11
2022-08-21T00:27:22.133Z,1011.09
2022-08-21T00:28:22.152Z,1011.10
2022-08-21T00:29:22.147Z,1011.12
2022-08-21T00:30:22.916Z,1011.12
2022-08-21T00:31:22.145Z,1011.11
2022-08-21T00:32:22.150Z,1011.13
2022-08-21T00:33:22.147Z,1011.16
2022-08-21T00:34:22.246Z,1011.21
2022-08-21T00:35:22.156Z,1011.19
2022-08-21T00:36:22.249Z,1011.17
2022-08-21T00:37:22.157Z,1011.15
2022-08-21T00:38:22.162Z,1011.14
2022-08-21T00:39:22.157Z,1011.14
2022-08-21T00:40:22.246Z,1011.16
2022-08-21T00:41:38.495Z,1011.16
2022-08-21T00:42:22.230Z,1011.19
2022-08-21T00:43:22.186Z,1011.16
2022-08-21T00:44:22.166Z,1011.15
2022-08-21T00:45:22.163Z,1011.13
2022-08-21T00:46:22.164Z,1011.16
2022-08-21T00:47:22.186Z,1011.17
2022-08-21T00:48:22.191Z,1011.19
2022-08-21T00:49:22.176Z,1011.21
2022-08-21T00:50:22.438Z,1011.15
2022-08-21T00:51:22.190Z,1011.15
2022-08-21T00:52:22.191Z,1011.16
2022-08-21T00:53:22.202Z,1011.17
2022-08-21T00:54:22.188Z,1011.16
2022-08-21T00:55:23.478Z,1011.20
2022-08-21T00:56:22.199Z,1011.18
2022-08-21T00:57:22.199Z,1011.17
2022-08-21T00:58:22.200Z,1011.19
2022-08-21T00:59:22.267Z,1011.17
2022-08-21T01:00:22.202Z,1011.18
2022-08-21T01:01:22.281Z,1011.21
2022-08-21T01:02:22.213Z,1011.22
2022-08-21T01:03:23.848Z,1011.19
2022-08-21T01:04:22.236Z,1011.21
2022-08-21T01:05:22.224Z,1011.20
2022-08-21T01:06:22.427Z,1011.18
2022-08-21T01:07:22.235Z,1011.17
2022-08-21T01:08:22.247Z,1011.17
2022-08-21T01:09:22.267Z,1011.19
2022-08-21T01:10:24.136Z,1011.17
2022-08-21T01:11:22.231Z,1011.20
2022-08-21T01:12:22.437Z,1011.16
2022-08-21T01:13:22.269Z,1011.21
2022-08-21T01:14:22.680Z,1011.24
2022-08-21T01:15:22.256Z,1011.22
2022-08-21T01:16:22.244Z,1011.21
2022-08-21T01:17:22.259Z,1011.25
2022-08-21T01:18:22.247Z,1011.25
2022-08-21T01:19:22.250Z,1011.24
2022-08-21T01:20:22.243Z,1011.25
2022-08-21T01:21:22.258Z,1011.27
2022-08-21T01:22:22.363Z,1011.25
2022-08-21T01:23:22.264Z,1011.27
2022-08-21T01:24:22.272Z,1011.30
2022-08-21T01:25:22.257Z,1011.28
2022-08-21T01:26:22.274Z,1011.26
2022-08-21T01:27:22.264Z,1011.28
2022-08-21T01:28:22.269Z,1011.29
2022-08-21T01:29:22.266Z,1011.32
2022-08-21T01:30:22.296Z,1011.29
2022-08-21T01:31:26.076Z,1011.34
2022-08-21T01:32:22.293Z,1011.40
2022-08-21T01:33:22.279Z,1011.33
2022-08-21T01:34:22.276Z,1011.40
2022-08-21T01:35:22.298Z,1011.36
2022-08-21T01:36:22.327Z,1011.36
2022-08-21T01:37:22.297Z,1011.40
2022-08-21T01:38:22.302Z,1011.40
2022-08-21T01:39:22.641Z,1011.35
2022-08-21T01:40:26.577Z,1011.35
2022-08-21T01:41:22.310Z,1011.34
2022-08-21T01:42:22.603Z,1011.35
2022-08-21T01:43:23.839Z,1011.35
2022-08-21T01:44:22.327Z,1011.33
2022-08-21T01:45:22.327Z,1011.32
2022-08-21T01:46:22.309Z,1011.33
2022-08-21T01:47:22.314Z,1011.30
2022-08-21T01:48:22.321Z,1011.30
2022-08-21T01:49:22.330Z,1011.32
2022-08-21T01:50:22.310Z,1011.28
2022-08-21T01:51:22.327Z,1011.24
2022-08-21T01:52:22.338Z,1011.25
2022-08-21T01:53:22.328Z,1011.25
2022-08-21T01:54:22.368Z,1011.25
2022-08-21T01:55:22.326Z,1011.24
2022-08-21T01:56:22.323Z,1011.21
2022-08-21T01:57:22.320Z,1011.24
2022-08-21T01:58:22.345Z,1011.25
2022-08-21T01:59:22.356Z,1011.20
2022-08-21T02:00:22.340Z,1011.20
2022-08-21T02:01:22.451Z,1011.20
2022-08-21T02:02:22.357Z,1011.24
2022-08-21T02:03:31.280Z,1011.25
2022-08-21T02:04:22.355Z,1011.26
2022-08-21T02:05:22.360Z,1011.23
2022-08-21T02:06:22.359Z,1011.25
2022-08-21T02:07:22.542Z,1011.25
2022-08-21T02:08:22.367Z,1011.26
2022-08-21T02:09:22.347Z,1011.24
2022-08-21T02:10:22.363Z,1011.23
2022-08-21T02:11:22.357Z,1011.22
2022-08-21T02:12:22.357Z,1011.20
2022-08-21T02:13:22.370Z,1011.24
2022-08-21T02:14:32.297Z,1011.21
2022-08-21T02:15:22.374Z,1011.23
2022-08-21T02:16:22.361Z,1011.21
2022-08-21T02:17:22.369Z,1011.19
2022-08-21T02:18:22.370Z,1011.22
2022-08-21T02:19:25.966Z,1011.23
2022-08-21T02:20:22.381Z,1011.28
2022-08-21T02:21:22.408Z,1011.25
2022-08-21T02:22:22.387Z,1011.24
2022-08-21T02:23:26.884Z,1011.26
2022-08-21T02:24:22.389Z,1011.24
2022-08-21T02:25:22.387Z,1011.26
2022-08-21T02:26:22.460Z,1011.24
2022-08-21T02:27:24.658Z,1011.27
2022-08-21T02:28:22.413Z,1011.29
2022-08-21T02:29:22.498Z,1011.25
2022-08-21T02:30:22.416Z,1011.25
2022-08-21T02:31:22.453Z,1011.24
2022-08-21T02:32:22.465Z,1011.22
2022-08-21T02:33:22.415Z,1011.26
2022-08-21T02:34:22.455Z,1011.22
2022-08-21T02:35:22.416Z,1011.24
2022-08-21T02:36:22.405Z,1011.17
2022-08-21T02:37:22.422Z,1011.23
2022-08-21T02:38:22.417Z,1011.23
2022-08-21T02:39:27.390Z,1011.20
2022-08-21T02:40:22.490Z,1011.26
2022-08-21T02:41:22.429Z,1011.23
2022-08-21T02:42:22.418Z,1011.23
2022-08-21T02:43:22.421Z,1011.20
2022-08-21T02:44:22.442Z,1011.21
2022-08-21T02:45:22.495Z,1011.23
2022-08-21T02:46:22.438Z,1011.22
2022-08-21T02:47:22.453Z,1011.23
2022-08-21T02:48:22.534Z,1011.23
2022-08-21T02:49:22.541Z,1011.22
2022-08-21T02:50:22.445Z,1011.24
2022-08-21T02:51:22.448Z,1011.20
2022-08-21T02:52:22.457Z,1011.20
2022-08-21T02:53:22.445Z,1011.22
2022-08-21T02:54:22.444Z,1011.23
2022-08-21T02:55:22.444Z,1011.20
2022-08-21T02:56:22.463Z,1011.23
2022-08-21T02:57:22.479Z,1011.22
2022-08-21T02:58:22.472Z,1011.24
2022-08-21T02:59:22.493Z,1011.21
2022-08-21T03:00:22.453Z,1011.23
2022-08-21T03:01:22.522Z,1011.22
2022-08-21T03:02:22.446Z,1011.24
2022-08-21T03:03:22.459Z,1011.25
2022-08-21T03:04:22.460Z,1011.28
2022-08-21T03:05:22.462Z,1011.23
2022-08-21T03:06:22.484Z,1011.26
2022-08-21T03:07:22.490Z,1011.26
2022-08-21T03:08:22.467Z,1011.25
2022-08-21T03:09:22.476Z,1011.24
2022-08-21T03:10:22.484Z,1011.28
2022-08-21T03:11:22.491Z,1011.24
2022-08-21T03:12:22.476Z,1011.26
2022-08-21T03:13:22.501Z,1011.25
2022-08-21T03:14:22.495Z,1011.25
2022-08-21T03:15:22.497Z,1011.21
2022-08-21T03:16:22.480Z,1011.25
2022-08-21T03:17:29.684Z,1011.26
2022-08-21T03:18:22.495Z,1011.26
2022-08-21T03:19:22.517Z,1011.27
2022-08-21T03:20:22.494Z,1011.24
2022-08-21T03:21:22.511Z,1011.23
2022-08-21T03:22:22.500Z,1011.19
2022-08-21T03:23:22.494Z,1011.27
2022-08-21T03:24:22.504Z,1011.23
2022-08-21T03:25:28.313Z,1011.22
2022-08-21T03:26:22.511Z,1011.25
2022-08-21T03:27:22.517Z,1011.20
2022-08-21T03:28:22.523Z,1011.20
2022-08-21T03:29:22.517Z,1011.19
2022-08-21T03:30:22.567Z,1011.22
2022-08-21T03:31:22.806Z,1011.19
2022-08-21T03:32:22.544Z,1011.17
2022-08-21T03:33:23.162Z,1011.20
2022-08-21T03:34:22.519Z,1011.18
2022-08-21T03:35:22.519Z,1011.17
2022-08-21T03:36:22.521Z,1011.14
2022-08-21T03:37:22.835Z,1011.17
2022-08-21T03:38:26.484Z,1011.15
2022-08-21T03:39:22.526Z,1011.18
2022-08-21T03:40:22.528Z,1011.20
2022-08-21T03:41:22.534Z,1011.22
2022-08-21T03:42:22.526Z,1011.25
2022-08-21T03:43:22.538Z,1011.21
2022-08-21T03:44:22.544Z,1011.25
2022-08-21T03:45:22.561Z,1011.23
2022-08-21T03:46:22.874Z,1011.26
2022-08-21T03:47:22.560Z,1011.23
2022-08-21T03:48:22.543Z,1011.23
2022-08-21T03:49:22.546Z,1011.25
2022-08-21T03:50:22.553Z,1011.27
2022-08-21T03:51:22.546Z,1011.24
2022-08-21T03:52:22.546Z,1011.24
2022-08-21T03:53:22.565Z,1011.24
2022-08-21T03:54:22.559Z,1011.25
2022-08-21T03:55:22.557Z,1011.24
2022-08-21T03:56:22.565Z,1011.24
2022-08-21T03:57:22.568Z,1011.25
2022-08-21T03:58:22.555Z,1011.25
2022-08-21T03:59:22.560Z,1011.22
2022-08-21T04:00:22.577Z,1011.19
2022-08-21T04:01:22.637Z,1011.22
2022-08-21T04:02:22.571Z,1011.20
2022-08-21T04:03:22.579Z,1011.22
2022-08-21T04:04:22.565Z,1011.25
2022-08-21T04:05:22.569Z,1011.30
2022-08-21T04:06:22.576Z,1011.35
2022-08-21T04:07:22.577Z,1011.37
2022-08-21T04:08:22.576Z,1011.36
2022-08-21T04:09:22.652Z,1011.35
2022-08-21T04:10:22.584Z,1011.37
2022-08-21T04:11:22.584Z,1011.38
2022-08-21T04:12:22.592Z,1011.40
2022-08-21T04:13:22.608Z,1011.45
2022-08-21T04:14:22.673Z,1011.43
2022-08-21T04:15:22.628Z,1011.46
2022-08-21T04:16:22.605Z,1011.46
2022-08-21T04:17:22.613Z,1011.45
2022-08-21T04:18:22.604Z,1011.45
2022-08-21T04:19:22.627Z,1011.45
2022-08-21T04:20:22.620Z,1011.47
2022-08-21T04:21:24.232Z,1011.47
2022-08-21T04:22:22.596Z,1011.50
2022-08-21T04:23:23.651Z,1011.48
2022-08-21T04:24:22.604Z,1011.49
2022-08-21T04:25:22.606Z,1011.44
2022-08-21T04:26:22.606Z,1011.49
2022-08-21T04:27:22.622Z,1011.46
2022-08-21T04:28:23.328Z,1011.44
2022-08-21T04:29:22.613Z,1011.43
2022-08-21T04:30:28.534Z,1011.44
2022-08-21T04:31:22.618Z,1011.42
2022-08-21T04:32:22.620Z,1011.41
2022-08-21T04:33:22.654Z,1011.38
2022-08-21T04:34:22.628Z,1011.40
2022-08-21T04:35:22.619Z,1011.41
2022-08-21T04:36:24.509Z,1011.39
2022-08-21T04:37:22.646Z,1011.37
2022-08-21T04:38:22.635Z,1011.37
2022-08-21T04:39:22.630Z,1011.41
2022-08-21T04:40:22.725Z,1011.40
2022-08-21T04:41:27.921Z,1011.42
2022-08-21T04:42:22.655Z,1011.46
2022-08-21T04:43:22.646Z,1011.46
2022-08-21T04:44:22.631Z,1011.45
2022-08-21T04:45:22.677Z,1011.45
2022-08-21T04:46:22.635Z,1011.41
2022-08-21T04:47:22.638Z,1011.42
2022-08-21T04:48:22.645Z,1011.42
2022-08-21T04:49:22.643Z,1011.38
2022-08-21T04:50:22.651Z,1011.37
2022-08-21T04:51:22.653Z,1011.39
2022-08-21T04:52:22.656Z,1011.41
2022-08-21T04:53:22.661Z,1011.40
2022-08-21T04:54:22.656Z,1011.40
2022-08-21T04:55:22.659Z,1011.42
2022-08-21T04:56:22.690Z,1011.43
2022-08-21T04:57:22.666Z,1011.47
2022-08-21T04:58:22.660Z,1011.47
2022-08-21T04:59:22.660Z,1011.46
2022-08-21T05:00:22.661Z,1011.48
2022-08-21T05:01:22.733Z,1011.50
2022-08-21T05:02:22.675Z,1011.48
2022-08-21T05:03:22.668Z,1011.51
2022-08-21T05:04:22.670Z,1011.49
2022-08-21T05:05:22.680Z,1011.50
2022-08-21T05:06:22.681Z,1011.47
2022-08-21T05:07:42.163Z,1011.53
2022-08-21T05:08:22.677Z,1011.51
2022-08-21T05:09:22.673Z,1011.51
2022-08-21T05:10:22.669Z,1011.51
2022-08-21T05:11:22.683Z,1011.53
2022-08-21T05:12:22.682Z,1011.52
2022-08-21T05:13:22.685Z,1011.58
2022-08-21T05:14:22.687Z,1011.50
2022-08-21T05:15:22.707Z,1011.51
2022-08-21T05:16:36.921Z,1011.51
2022-08-21T05:17:22.693Z,1011.54
2022-08-21T05:18:22.704Z,1011.52
2022-08-21T05:19:22.712Z,1011.56
2022-08-21T05:20:22.695Z,1011.55
2022-08-21T05:21:22.713Z,1011.57
2022-08-21T05:22:22.807Z,1011.61
2022-08-21T05:23:22.703Z,1011.58
2022-08-21T05:24:22.726Z,1011.61
2022-08-21T05:25:23.695Z,1011.63
2022-08-21T05:26:22.707Z,1011.63
2022-08-21T05:27:22.713Z,1011.67
2022-08-21T05:28:22.712Z,1011.69
2022-08-21T05:29:22.719Z,1011.72
2022-08-21T05:30:22.751Z,1011.72
2022-08-21T05:31:22.720Z,1011.71
2022-08-21T05:32:22.740Z,1011.71
2022-08-21T05:33:22.716Z,1011.68
2022-08-21T05:34:22.720Z,1011.66
2022-08-21T05:35:22.730Z,1011.72
2022-08-21T05:36:22.737Z,1011.71
2022-08-21T05:37:22.725Z,1011.67
2022-08-21T05:38:22.722Z,1011.71
2022-08-21T05:39:22.729Z,1011.69
2022-08-21T05:40:23.463Z,1011.66
2022-08-21T05:41:22.746Z,1011.70
2022-08-21T05:42:23.101Z,1011.69
2022-08-21T05:43:22.735Z,1011.64
2022-08-21T05:44:22.735Z,1011.65
2022-08-21T05:45:41.798Z,1011.66
2022-08-21T05:46:22.777Z,1011.68
2022-08-21T05:47:22.743Z,1011.62
2022-08-21T05:48:22.753Z,1011.69
2022-08-21T05:49:22.752Z,1011.67
2022-08-21T05:50:22.759Z,1011.69
2022-08-21T05:51:22.757Z,1011.67
2022-08-21T05:52:22.753Z,1011.69
2022-08-21T05:53:22.756Z,1011.72
2022-08-21T05:54:22.756Z,1011.66
2022-08-21T05:55:22.764Z,1011.70
2022-08-21T05:56:22.766Z,1011.69
2022-08-21T05:57:22.763Z,1011.71
2022-08-21T05:58:22.761Z,1011.72
2022-08-21T05:59:22.771Z,1011.69
2022-08-21T06:00:22.766Z,1011.70
2022-08-21T06:01:22.789Z,1011.72
2022-08-21T06:02:22.780Z,1011.77
2022-08-21T06:03:22.766Z,1011.79
2022-08-21T06:04:22.776Z,1011.78
2022-08-21T06:05:36.335Z,1011.79
2022-08-21T06:06:22.789Z,1011.77
2022-08-21T06:07:22.788Z,1011.79
2022-08-21T06:08:22.780Z,1011.82
2022-08-21T06:09:22.783Z,1011.82
2022-08-21T06:10:22.793Z,1011.81
2022-08-21T06:11:25.796Z,1011.82
2022-08-21T06:12:22.801Z,1011.82
2022-08-21T06:13:22.788Z,1011.83
2022-08-21T06:14:22.797Z,1011.83
2022-08-21T06:15:22.786Z,1011.84
2022-08-21T06:16:22.783Z,1011.85
2022-08-21T06:17:22.806Z,1011.88
2022-08-21T06:18:22.862Z,1011.88
2022-08-21T06:19:23.224Z,1011.89
2022-08-21T06:20:22.806Z,1011.89
2022-08-21T06:21:22.850Z,1011.90
2022-08-21T06:22:22.799Z,1011.85
2022-08-21T06:23:22.817Z,1011.84
2022-08-21T06:24:22.822Z,1011.89
2022-08-21T06:25:22.833Z,1011.94
2022-08-21T06:26:22.855Z,1011.93
2022-08-21T06:27:26.564Z,1011.91
2022-08-21T06:28:22.898Z,1011.90
2022-08-21T06:29:22.827Z,1011.93
2022-08-21T06:30:22.828Z,1011.93
2022-08-21T06:31:22.856Z,1011.94
2022-08-21T06:32:23.017Z,1011.93
2022-08-21T06:33:22.829Z,1011.99
2022-08-21T06:34:22.828Z,1011.94
2022-08-21T06:35:22.825Z,1011.97
2022-08-21T06:36:22.846Z,1011.99
2022-08-21T06:37:23.162Z,1011.99
2022-08-21T06:38:22.848Z,1011.98
2022-08-21T06:39:24.840Z,1011.97
2022-08-21T06:40:22.914Z,1011.96
2022-08-21T06:41:24.066Z,1011.96
2022-08-21T06:42:22.842Z,1011.97
2022-08-21T06:43:22.866Z,1011.96
2022-08-21T06:44:22.843Z,1011.98
2022-08-21T06:45:22.919Z,1011.98
2022-08-21T06:46:22.874Z,1011.97
2022-08-21T06:47:22.880Z,1011.93
2022-08-21T06:48:22.865Z,1011.95
2022-08-21T06:49:22.868Z,1011.96
2022-08-21T06:50:22.886Z,1012.01
2022-08-21T06:51:22.857Z,1011.96
2022-08-21T06:52:23.220Z,1012.00
2022-08-21T06:53:22.877Z,1011.98
2022-08-21T06:54:22.891Z,1012.04
2022-08-21T06:55:26.244Z,1012.03
2022-08-21T06:56:22.909Z,1012.07
2022-08-21T06:57:22.934Z,1012.08
2022-08-21T06:58:22.936Z,1012.10
2022-08-21T06:59:22.907Z,1012.10
2022-08-21T07:00:22.888Z,1012.10
2022-08-21T07:01:22.979Z,1012.07
2022-08-21T07:02:22.940Z,1012.05
2022-08-21T07:04:22.901Z,1012.08
2022-08-21T07:05:22.911Z,1012.09
2022-08-21T07:06:22.935Z,1012.06
2022-08-21T07:07:22.904Z,1012.07
2022-08-21T07:08:22.998Z,1012.11
2022-08-21T07:09:24.865Z,1012.07
2022-08-21T07:10:23.238Z,1012.10
2022-08-21T07:11:22.963Z,1012.12
2022-08-21T07:12:22.913Z,1012.10
2022-08-21T07:13:22.926Z,1012.11
2022-08-21T07:14:22.947Z,1012.10
2022-08-21T07:15:22.932Z,1012.12
2022-08-21T07:16:22.940Z,1012.15
2022-08-21T07:17:23.047Z,1012.09
2022-08-21T07:18:22.943Z,1012.07
2022-08-21T07:19:22.980Z,1012.11
2022-08-21T07:20:23.008Z,1012.11
2022-08-21T07:21:26.032Z,1012.12
2022-08-21T07:22:22.946Z,1012.13
2022-08-21T07:23:23.025Z,1012.12
2022-08-21T07:24:22.984Z,1012.13
2022-08-21T07:25:22.981Z,1012.15
2022-08-21T07:26:22.956Z,1012.16
2022-08-21T07:27:22.974Z,1012.12
2022-08-21T07:28:23.002Z,1012.18
2022-08-21T07:29:23.057Z,1012.13
2022-08-21T07:30:23.145Z,1012.08
2022-08-21T07:31:22.994Z,1012.09
2022-08-21T07:32:22.970Z,1012.10
2022-08-21T07:33:23.245Z,1012.11
2022-08-21T07:34:23.151Z,1012.10
2022-08-21T07:35:22.990Z,1012.12
2022-08-21T07:36:23.054Z,1012.09
2022-08-21T07:37:23.076Z,1012.09
2022-08-21T07:38:23.199Z,1012.10
2022-08-21T07:39:22.994Z,1012.07
2022-08-21T07:40:23.096Z,1012.08
2022-08-21T07:41:22.998Z,1012.10
2022-08-21T07:42:23.206Z,1012.06
2022-08-21T07:43:23.240Z,1012.15
2022-08-21T07:44:23.120Z,1012.17
2022-08-21T07:45:23.111Z,1012.22
2022-08-21T07:46:23.057Z,1012.27
2022-08-21T07:47:41.713Z,1012.37
2022-08-21T07:48:23.057Z,1012.58
2022-08-21T07:49:23.101Z,1012.74
2022-08-21T07:50:23.148Z,1012.58
2022-08-21T07:51:23.411Z,1012.70
2022-08-21T07:52:23.107Z,1012.63
2022-08-21T07:53:23.210Z,1012.56
2022-08-21T07:54:33.874Z,1012.54
2022-08-21T07:55:23.108Z,1012.57
2022-08-21T07:56:23.080Z,1012.54
2022-08-21T07:57:23.040Z,1012.66
2022-08-21T07:58:23.284Z,1012.73
2022-08-21T07:59:23.070Z,1012.71
2022-08-21T08:00:23.043Z,1012.70
2022-08-21T08:01:23.360Z,1012.82
2022-08-21T08:02:23.323Z,1012.99
2022-08-21T08:03:29.239Z,1012.88
2022-08-21T08:04:26.332Z,1012.95
2022-08-21T08:05:23.147Z,1013.41
2022-08-21T08:06:33.098Z,1013.63
2022-08-21T08:07:23.074Z,1013.75
2022-08-21T08:08:23.326Z,1014.07
2022-08-21T08:09:23.216Z,1014.00
2022-08-21T08:10:23.163Z,1014.12
2022-08-21T08:11:23.094Z,1014.47
2022-08-21T08:12:23.123Z,1014.50
2022-08-21T08:13:23.303Z,1014.51
2022-08-21T08:14:29.035Z,1014.89
2022-08-21T08:15:23.151Z,1015.08
2022-08-21T08:16:23.121Z,1015.28
2022-08-21T08:17:23.276Z,1014.89
2022-08-21T08:18:23.149Z,1014.71
2022-08-21T08:19:23.243Z,1014.17
2022-08-21T08:20:23.192Z,1013.72
2022-08-21T08:21:23.192Z,1013.16
2022-08-21T08:22:23.153Z,1012.94
2022-08-21T08:23:23.175Z,1012.87
2022-08-21T08:24:23.158Z,1012.84
2022-08-21T08:25:23.210Z,1012.75
2022-08-21T08:26:23.384Z,1012.78
2022-08-21T08:27:23.201Z,1012.77
2022-08-21T08:28:23.216Z,1012.75
2022-08-21T08:29:23.211Z,1012.69
2022-08-21T08:30:23.223Z,1012.67
2022-08-21T08:31:23.256Z,1012.65
2022-08-21T08:32:23.230Z,1012.57
2022-08-21T08:33:23.215Z,1012.53
2022-08-21T08:34:25.763Z,1012.48
2022-08-21T08:35:24.255Z,1012.46
2022-08-21T08:36:23.337Z,1012.39
2022-08-21T08:37:24.075Z,1012.41
2022-08-21T08:39:26.609Z,1012.38
2022-08-21T08:40:23.297Z,1012.38
2022-08-21T08:41:23.305Z,1012.37
2022-08-21T08:42:33.349Z,1012.37
2022-08-21T08:43:23.346Z,1012.42
2022-08-21T08:44:24.053Z,1012.34
2022-08-21T08:45:23.267Z,1012.39
2022-08-21T08:46:23.267Z,1012.35
2022-08-21T08:47:23.276Z,1012.38
2022-08-21T08:48:23.296Z,1012.35
2022-08-21T08:49:23.350Z,1012.41
2022-08-21T08:50:23.303Z,1012.61
2022-08-21T08:51:23.309Z,1012.57
2022-08-21T08:52:23.311Z,1012.63
2022-08-21T08:53:23.502Z,1012.39
2022-08-21T08:54:23.337Z,1012.30
2022-08-21T08:55:27.140Z,1012.29
2022-08-21T08:56:23.398Z,1012.27
2022-08-21T08:57:23.349Z,1012.26
2022-08-21T08:58:23.356Z,1012.26
2022-08-21T08:59:26.101Z,1012.23
2022-08-21T09:00:23.360Z,1012.25
2022-08-21T09:01:23.401Z,1012.24
2022-08-21T09:02:23.377Z,1012.18
2022-08-21T09:03:23.421Z,1012.17
2022-08-21T09:04:23.371Z,1012.15
2022-08-21T09:05:23.401Z,1012.15
2022-08-21T09:06:23.420Z,1012.12
2022-08-21T09:07:23.386Z,1012.13
2022-08-21T09:08:23.450Z,1012.09
2022-08-21T09:09:23.439Z,1012.14
2022-08-21T09:10:23.584Z,1012.07
2022-08-21T09:11:23.497Z,1012.06
2022-08-21T09:12:23.446Z,1012.12
2022-08-21T09:13:23.975Z,1012.09
2022-08-21T09:14:23.473Z,1012.11
2022-08-21T09:15:23.605Z,1012.05
2022-08-21T09:16:23.476Z,1012.09
2022-08-21T09:17:23.481Z,1012.08
2022-08-21T09:18:23.503Z,1012.10
2022-08-21T09:19:25.000Z,1012.10
2022-08-21T09:20:23.567Z,1012.12
2022-08-21T09:21:23.515Z,1012.10
2022-08-21T09:22:23.547Z,1012.14
2022-08-21T09:23:23.583Z,1012.17
2022-08-21T09:24:23.670Z,1012.14
2022-08-21T09:25:24.144Z,1012.11
2022-08-21T09:26:23.604Z,1012.18
2022-08-21T09:27:23.620Z,1012.13
2022-08-21T09:28:23.641Z,1012.15
2022-08-21T09:29:23.587Z,1012.16
2022-08-21T09:30:23.622Z,1012.14
2022-08-21T09:31:23.682Z,1012.11
2022-08-21T09:32:23.599Z,1012.04
2022-08-21T09:33:23.687Z,1012.12
2022-08-21T09:34:23.578Z,1012.07
2022-08-21T09:35:23.934Z,1012.01
2022-08-21T09:36:23.872Z,1012.05
2022-08-21T09:37:23.591Z,1012.06
2022-08-21T09:38:23.660Z,1012.06
2022-08-21T09:39:23.794Z,1012.09
2022-08-21T09:40:23.926Z,1012.10
2022-08-21T09:41:23.920Z,1012.04
2022-08-21T09:42:23.639Z,1012.05
2022-08-21T09:43:23.693Z,1012.06
2022-08-21T09:44:23.756Z,1012.09
2022-08-21T09:45:24.077Z,1012.05
2022-08-21T09:46:23.637Z,1012.08
2022-08-21T09:47:26.726Z,1012.07
2022-08-21T09:48:26.874Z,1012.07
2022-08-21T09:49:23.699Z,1012.06
2022-08-21T09:50:23.823Z,1012.08
2022-08-21T09:51:23.930Z,1012.06
2022-08-21T09:52:23.770Z,1012.04
2022-08-21T09:53:23.707Z,1012.07
2022-08-21T09:54:23.735Z,1012.04
2022-08-21T09:55:23.736Z,1012.07
2022-08-21T09:56:24.287Z,1012.07
2022-08-21T09:57:23.954Z,1012.06
2022-08-21T09:58:23.838Z,1012.07
2022-08-21T09:59:23.776Z,1012.05
2022-08-21T10:00:23.754Z,1012.06
2022-08-21T10:01:23.859Z,1012.06
2022-08-21T10:02:23.787Z,1012.02
2022-08-21T10:03:26.674Z,1012.05
2022-08-21T10:04:23.830Z,1012.01
2022-08-21T10:05:23.818Z,1012.07
2022-08-21T10:06:23.782Z,1012.08
2022-08-21T10:07:23.840Z,1012.07
2022-08-21T10:08:23.897Z,1012.09
2022-08-21T10:09:23.846Z,1012.11
2022-08-21T10:10:23.872Z,1012.08
2022-08-21T10:11:23.904Z,1012.09
2022-08-21T10:12:23.897Z,1012.14
2022-08-21T10:13:23.857Z,1012.06
2022-08-21T10:14:23.883Z,1012.08
2022-08-21T10:15:23.894Z,1012.10
2022-08-21T10:16:24.104Z,1012.11
2022-08-21T10:17:24.003Z,1012.16
2022-08-21T10:18:23.917Z,1012.16
2022-08-21T10:19:24.028Z,1012.15
2022-08-21T10:20:23.930Z,1012.13
2022-08-21T10:21:24.012Z,1012.13
2022-08-21T10:22:23.888Z,1012.11
2022-08-21T10:23:23.946Z,1012.13
2022-08-21T10:24:31.481Z,1012.12
2022-08-21T10:30:18.246Z,1012.17
2022-08-21T10:31:18.222Z,1012.21
2022-08-21T10:32:25.719Z,1012.17
2022-08-21T10:33:18.204Z,1012.19
2022-08-21T10:34:21.492Z,1012.21
2022-08-21T10:35:18.405Z,1012.20
2022-08-21T10:36:18.670Z,1012.21
2022-08-21T10:37:18.238Z,1012.21
2022-08-21T10:38:39.398Z,1012.12
2022-08-21T10:39:26.745Z,1012.18
2022-08-21T10:40:18.855Z,1012.20
2022-08-21T10:41:18.449Z,1012.22
2022-08-21T10:42:18.325Z,1012.21
2022-08-21T10:43:18.285Z,1012.16
2022-08-21T10:44:18.280Z,1012.20
2022-08-21T10:45:18.352Z,1012.16
2022-08-21T10:46:18.472Z,1012.21
2022-08-21T10:47:18.306Z,1012.32
2022-08-21T10:48:18.302Z,1012.39
2022-08-21T10:49:18.348Z,1012.37
2022-08-21T10:50:18.501Z,1012.37
2022-08-21T10:51:18.463Z,1012.42
2022-08-21T10:52:18.374Z,1012.54
2022-08-21T10:53:18.513Z,1012.43
2022-08-21T10:54:48.845Z,1012.43
2022-08-21T10:55:20.161Z,1012.40
2022-08-21T10:56:18.373Z,1012.54
2022-08-21T10:57:29.789Z,1012.59
2022-08-21T10:58:18.672Z,1012.62
2022-08-21T10:59:18.551Z,1012.54
2022-08-21T11:00:18.982Z,1012.61
2022-08-21T11:01:18.475Z,1012.67
2022-08-21T11:02:18.508Z,1012.61
2022-08-21T11:03:18.456Z,1012.66
2022-08-21T11:04:18.435Z,1012.66
2022-08-21T11:06:18.442Z,1012.67
2022-08-21T11:07:18.845Z,1012.71
2022-08-21T11:08:18.456Z,1012.72
2022-08-21T11:09:18.526Z,1012.86
2022-08-21T11:10:19.868Z,1012.74
2022-08-21T11:11:19.988Z,1012.84
2022-08-21T11:12:18.575Z,1012.75
2022-08-21T11:13:18.514Z,1012.75
2022-08-21T11:14:18.521Z,1012.65
2022-08-21T11:15:28.793Z,1012.58
2022-08-21T11:16:18.570Z,1012.57
2022-08-21T11:17:21.884Z,1012.51
2022-08-21T11:18:18.571Z,1012.51
2022-08-21T11:19:18.580Z,1012.44
2022-08-21T11:20:18.591Z,1012.40
2022-08-21T11:21:18.611Z,1012.40
2022-08-21T11:22:18.645Z,1012.28
2022-08-21T11:23:18.712Z,1012.40
2022-08-21T11:24:18.714Z,1012.33
2022-08-21T11:25:18.657Z,1012.51
2022-08-21T11:26:18.658Z,1012.52
2022-08-21T11:27:19.029Z,1012.48
2022-08-21T11:28:18.684Z,1012.48
2022-08-21T11:29:18.743Z,1012.58
2022-08-21T11:30:18.729Z,1012.62
2022-08-21T11:31:18.919Z,1012.58
2022-08-21T11:32:21.953Z,1012.53
2022-08-21T11:33:18.792Z,1012.54
2022-08-21T11:34:18.753Z,1012.48
2022-08-21T11:35:18.793Z,1012.51
2022-08-21T11:36:18.804Z,1012.46
2022-08-21T11:37:18.882Z,1012.50
2022-08-21T11:38:18.826Z,1012.49
2022-08-21T11:39:18.881Z,1012.50
2022-08-21T11:40:18.919Z,1012.48
2022-08-21T11:41:18.858Z,1012.40
2022-08-21T11:42:18.887Z,1012.40
2022-08-21T11:43:18.918Z,1012.38
2022-08-21T11:44:18.921Z,1012.38
2022-08-21T11:45:18.986Z,1012.37
2022-08-21T11:46:18.912Z,1012.35
2022-08-21T11:47:19.317Z,1012.42
2022-08-21T11:48:18.995Z,1012.46
2022-08-21T11:49:19.051Z,1012.39
2022-08-21T11:50:34.466Z,1012.36
2022-08-21T11:51:19.303Z,1012.29
2022-08-21T11:52:19.144Z,1012.27
2022-08-21T11:53:19.100Z,1012.25
2022-08-21T11:54:19.045Z,1012.19
2022-08-21T11:55:23.631Z,1012.29
2022-08-21T11:56:19.444Z,1012.28
2022-08-21T11:57:19.135Z,1012.31
2022-08-21T11:58:19.096Z,1012.31
2022-08-21T11:59:19.129Z,1012.28
2022-08-21T12:00:19.120Z,1012.29
2022-08-21T12:01:19.163Z,1012.27
2022-08-21T12:02:19.311Z,1012.24
2022-08-21T12:03:19.147Z,1012.27
2022-08-21T12:04:19.202Z,1012.25
2022-08-21T12:05:19.291Z,1012.26
2022-08-21T12:06:24.386Z,1012.23
2022-08-21T12:07:19.273Z,1012.26
2022-08-21T12:08:19.293Z,1012.27
2022-08-21T12:09:19.272Z,1012.19
2022-08-21T12:10:19.229Z,1012.19
2022-08-21T12:11:19.378Z,1012.20
2022-08-21T12:12:19.251Z,1012.24
2022-08-21T12:13:19.273Z,1012.19